Time;durP1;ratioP1;P1;durP2;ratioP2;P2;SDS_P1;SDS_P2;PMS_P1;PMS_P2;Temp;Humidity;BMP_temperature;BMP_pressure;BME280_temperature;BME280_humidity;BME280_pressure;Samples;Min_cycle;Max_cycle;Signal;HPM_P1;HPM_P2
2022/09/06 02:59:50;;;;;;;3.93;3.00;;;17.30;99.90;;;;;;4997317;28;20518;-94
2022/09/06 03:02:26;;;;;;;3.40;2.87;;;17.30;99.90;;;;;;4998866;28;20451;-94
2022/09/06 03:54:27;;;;;;;4.00;3.60;;;17.10;99.90;;;;;;4996253;28;20443;-91
2022/09/06 04:15:02;;;;;;;4.00;3.60;;;17.00;99.90;;;;;;1308509;23;20747;-93
2022/09/06 04:17:29;;;;;;;4.00;3.60;;;17.00;99.90;;;;;;4990964;28;20462;-94
2022/09/06 04:19:56;;;;;;;4.20;3.87;;;17.00;99.90;;;;;;4988914;28;20488;-93
2022/09/06 04:22:22;;;;;;;4.53;4.13;;;17.00;99.90;;;;;;4981890;28;20852;-92
2022/09/06 04:24:49;;;;;;;4.00;3.63;;;17.00;99.90;;;;;;4984714;28;20797;-92
2022/09/06 04:27:57;;;;;;;5.00;4.50;;;17.00;99.90;;;;;;4985104;28;20463;-94
2022/09/06 04:30:25;;;;;;;3.60;3.30;;;17.00;99.90;;;;;;4979242;28;20495;-93
2022/09/06 04:32:52;;;;;;;4.10;3.70;;;17.00;99.90;;;;;;4980608;28;20836;-92
2022/09/06 04:35:19;;;;;;;3.93;3.63;;;17.00;99.90;;;;;;4979298;28;20467;-92
2022/09/06 04:37:45;;;;;;;3.60;3.30;;;17.00;99.90;;;;;;4979942;28;20467;-92
2022/09/06 04:40:12;;;;;;;4.20;3.80;;;17.00;99.90;;;;;;4979284;28;20494;-92
2022/09/06 04:42:39;;;;;;;3.93;3.60;;;16.90;99.90;;;;;;4986641;28;20459;-93
2022/09/06 04:45:07;;;;;;;3.80;3.40;;;16.90;99.90;;;;;;4983215;28;20833;-92
2022/09/06 04:47:35;;;;;;;4.37;3.97;;;16.90;99.90;;;;;;4980944;28;20804;-92
2022/09/06 04:50:02;;;;;;;4.33;3.70;;;16.90;99.90;;;;;;4986018;28;21011;-93
2022/09/06 04:52:29;;;;;;;5.30;4.80;;;16.90;99.90;;;;;;4986841;28;20487;-93
2022/09/06 04:54:56;;;;;;;4.27;3.83;;;16.90;99.90;;;;;;4984919;28;20460;-92
2022/09/06 04:57:25;;;;;;;5.03;4.53;;;16.90;99.90;;;;;;4984650;28;20468;-92
2022/09/06 04:59:52;;;;;;;3.80;3.40;;;16.90;99.90;;;;;;4986274;28;20499;-92
2022/09/06 05:02:19;;;;;;;4.83;4.03;;;16.90;99.90;;;;;;4985207;28;20459;-92
2022/09/06 05:04:47;;;;;;;3.50;3.20;;;16.90;99.90;;;;;;4985189;28;20466;-91
2022/09/06 05:07:14;;;;;;;4.10;3.57;;;16.90;99.90;;;;;;4984798;28;20475;-93
2022/09/06 05:09:41;;;;;;;3.80;3.50;;;16.90;99.90;;;;;;4983967;28;20570;-93
2022/09/06 05:12:08;;;;;;;3.67;3.30;;;16.90;99.90;;;;;;4985469;28;20534;-92
2022/09/06 05:14:48;;;;;;;4.10;3.70;;;16.90;99.90;;;;;;4985088;28;20490;-93
2022/09/06 05:17:27;;;;;;;3.63;2.93;;;16.90;99.90;;;;;;4990058;28;20495;-94
2022/09/06 05:19:58;;;;;;;3.93;3.60;;;16.80;99.90;;;;;;4984957;28;20487;-93
2022/09/06 05:22:24;;;;;;;4.60;4.20;;;16.80;99.90;;;;;;4986153;28;20539;-94
2022/09/06 05:24:51;;;;;;;3.80;3.47;;;16.90;99.90;;;;;;4987957;28;20546;-94
2022/09/06 05:27:18;;;;;;;4.13;3.67;;;16.80;99.90;;;;;;4987080;28;20973;-93
2022/09/06 05:29:45;;;;;;;3.87;3.57;;;16.80;99.90;;;;;;4986061;28;20498;-93
2022/09/06 05:32:12;;;;;;;5.67;4.53;;;16.90;99.90;;;;;;4984494;28;20486;-94
2022/09/06 05:34:39;;;;;;;3.83;3.40;;;16.90;99.90;;;;;;4985194;28;20468;-94
2022/09/06 05:37:07;;;;;;;4.00;3.70;;;16.90;99.90;;;;;;4985007;28;20459;-94
2022/09/06 05:39:34;;;;;;;3.80;3.40;;;16.90;99.90;;;;;;4988080;28;20483;-94
2022/09/06 05:42:05;;;;;;;3.90;3.50;;;16.90;99.90;;;;;;4987858;28;20480;-93
2022/09/06 05:45:12;;;;;;;3.57;3.27;;;16.90;99.90;;;;;;4987187;28;20456;-94
2022/09/06 05:47:39;;;;;;;4.70;3.57;;;17.00;99.90;;;;;;4992696;28;20490;-94
2022/09/06 06:10:50;;;;;;;4.27;3.87;;;17.10;99.90;;;;;;4134870;23;20484;-95
2022/09/06 09:14:34;;;;;;;3.50;3.20;;;23.80;99.90;;;;;;5017212;28;20456;-94
2022/09/06 09:17:06;;;;;;;3.70;3.00;;;23.80;99.90;;;;;;5019710;28;20472;-94
2022/09/06 09:19:51;;;;;;;3.07;2.73;;;23.80;99.90;;;;;;5019645;28;20463;-94
2022/09/06 09:22:19;;;;;;;2.90;2.67;;;23.90;99.90;;;;;;5019346;28;20451;-91
2022/09/06 09:24:50;;;;;;;4.40;2.93;;;24.00;99.90;;;;;;5019795;28;20512;-93
2022/09/06 09:27:22;;;;;;;5.67;2.97;;;24.20;99.90;;;;;;5020125;28;20457;-93
2022/09/06 09:30:05;;;;;;;2.87;2.67;;;24.40;99.90;;;;;;5019834;28;20436;-91
2022/09/06 09:32:37;;;;;;;3.23;2.63;;;24.50;99.90;;;;;;5020269;28;20469;-91
2022/09/06 10:27:59;;;;;;;4.50;2.90;;;26.60;99.90;;;;;;5123476;23;20494;-95
2022/09/06 10:46:09;;;;;;;4.40;2.97;;;26.00;99.90;;;;;;4998259;28;20479;-95
2022/09/06 10:48:41;;;;;;;3.73;3.03;;;25.80;99.90;;;;;;4995031;28;20451;-96
2022/09/06 13:29:32;;;;;;;3.37;3.07;;;26.00;99.90;;;;;;5007041;28;20473;-91
2022/09/06 13:32:32;;;;;;;3.70;3.17;;;25.80;99.90;;;;;;5010097;28;20483;-95
2022/09/06 13:35:00;;;;;;;3.13;2.83;;;25.50;99.90;;;;;;5008031;28;20447;-92
2022/09/06 13:37:29;;;;;;;3.17;2.87;;;25.40;99.90;;;;;;5010448;28;20474;-93
2022/09/06 13:39:58;;;;;;;4.10;3.30;;;25.20;99.90;;;;;;5011132;28;20566;-92
2022/09/06 13:42:27;;;;;;;3.63;3.10;;;25.20;99.90;;;;;;5010699;28;20518;-92
2022/09/06 13:44:56;;;;;;;4.53;2.83;;;25.20;99.90;;;;;;5008969;28;20470;-93
2022/09/06 13:47:26;;;;;;;4.17;2.73;;;25.10;99.90;;;;;;5008674;28;20494;-92
2022/09/06 13:49:54;;;;;;;3.10;2.80;;;25.00;99.90;;;;;;5007405;28;20455;-91
2022/09/06 13:52:21;;;;;;;3.27;2.83;;;25.00;99.90;;;;;;5006567;28;20511;-92
2022/09/06 13:54:48;;;;;;;3.27;2.97;;;25.00;99.90;;;;;;5006149;28;20955;-93
2022/09/06 13:57:15;;;;;;;4.70;2.97;;;25.00;99.90;;;;;;5006420;28;21028;-92
2022/09/06 13:59:42;;;;;;;4.47;3.10;;;25.00;99.90;;;;;;5005369;28;21033;-93
2022/09/06 14:02:14;;;;;;;3.03;2.60;;;25.00;99.90;;;;;;5005976;28;20455;-93
2022/09/06 14:04:44;;;;;;;3.17;2.90;;;25.00;99.90;;;;;;5006629;28;20547;-92
2022/09/06 14:07:11;;;;;;;3.07;2.80;;;25.00;99.90;;;;;;5005041;28;20509;-93
2022/09/06 14:09:38;;;;;;;3.70;2.93;;;25.00;99.90;;;;;;5016304;28;20449;-95
2022/09/06 14:12:05;;;;;;;4.97;2.90;;;24.90;99.90;;;;;;5018878;28;20441;-93
2022/09/06 14:14:32;;;;;;;4.07;2.90;;;24.90;99.90;;;;;;5019032;28;20443;-93
2022/09/06 14:16:59;;;;;;;2.97;2.67;;;25.00;99.90;;;;;;5019086;28;20469;-94
2022/09/06 14:19:28;;;;;;;3.30;2.63;;;25.20;99.90;;;;;;5018949;28;20453;-94
2022/09/06 14:21:54;;;;;;;3.40;2.77;;;25.30;99.90;;;;;;5018650;28;20499;-94
2022/09/06 14:24:21;;;;;;;4.03;3.00;;;25.50;99.90;;;;;;5018600;28;20435;-93
2022/09/06 14:26:48;;;;;;;3.37;2.80;;;25.60;99.90;;;;;;5019160;28;20479;-94
2022/09/06 14:31:50;;;;;;;5.10;2.80;;;25.50;99.90;;;;;;5060204;23;20495;-94
2022/09/06 14:34:17;;;;;;;3.50;2.90;;;25.60;99.90;;;;;;5034651;23;20543;-94
2022/09/06 16:25:36;;;;;;;3.20;2.30;;;24.50;99.90;;;;;;4055789;23;20555;-94
2022/09/06 16:28:03;;;;;;;2.83;2.63;;;24.50;99.90;;;;;;4963259;28;20461;-94
2022/09/06 16:30:30;;;;;;;3.77;2.67;;;24.50;99.90;;;;;;4957022;29;20512;-92
2022/09/06 18:42:55;;;;;;;3.60;2.70;;;20.60;99.90;;;;;;3903717;23;20303;-94
2022/09/06 18:45:27;;;;;;;3.30;3.00;;;20.60;99.90;;;;;;4976268;28;20481;-93
2022/09/06 18:47:54;;;;;;;3.53;2.80;;;20.50;99.90;;;;;;4969802;29;20464;-94
2022/09/06 18:50:29;;;;;;;2.60;2.40;;;20.50;99.90;;;;;;4964990;29;20559;-94
2022/09/06 18:53:00;;;;;;;4.33;2.73;;;20.40;99.90;;;;;;4966845;29;20452;-93
2022/09/06 18:55:31;;;;;;;3.50;2.80;;;20.30;99.90;;;;;;4946339;29;20489;-93
2022/09/06 18:58:05;;;;;;;2.83;2.57;;;20.30;99.90;;;;;;4945637;29;20466;-93
2022/09/06 19:00:35;;;;;;;5.40;2.70;;;20.20;99.90;;;;;;4945061;29;20569;-93
2022/09/06 19:03:03;;;;;;;2.70;2.50;;;20.20;99.90;;;;;;4944571;29;20462;-93
2022/09/06 19:05:30;;;;;;;3.80;2.87;;;20.20;99.90;;;;;;4944492;29;20838;-94
2022/09/06 19:08:00;;;;;;;2.90;2.70;;;20.10;99.90;;;;;;4949433;29;20493;-94
2022/09/06 19:10:27;;;;;;;3.30;3.00;;;20.10;99.90;;;;;;4950087;29;20540;-93
2022/09/06 19:12:55;;;;;;;6.50;3.17;;;20.00;99.90;;;;;;4946432;29;20520;-93
2022/09/06 19:15:24;;;;;;;2.60;2.40;;;20.00;99.90;;;;;;4943829;29;20461;-93
2022/09/06 19:17:57;;;;;;;3.73;2.57;;;19.90;99.90;;;;;;4946257;29;20792;-94
2022/09/06 19:20:24;;;;;;;4.03;2.77;;;19.90;99.90;;;;;;4944116;29;20568;-93
2022/09/06 19:22:51;;;;;;;3.43;2.93;;;19.80;99.90;;;;;;4945110;28;20544;-94
2022/09/06 19:28:15;;;;;;;2.97;2.67;;;19.70;99.90;;;;;;4953162;28;20457;-93
2022/09/06 19:30:48;;;;;;;3.73;2.20;;;19.70;99.90;;;;;;4955543;29;20464;-93
